sensor_id;sensor_type;location;lat;lon;timestamp;P1;durP1;ratioP1;P2;durP2;ratioP2
22634;SDS011;11484;50.858;4.384;2023-07-20T00:00:52;6.22;;;2.50;;
22634;SDS011;11484;50.858;4.384;2023-07-20T00:03:18;9.95;;;2.83;;
22634;SDS011;11484;50.858;4.384;2023-07-20T00:05:50;6.88;;;2.40;;
22634;SDS011;11484;50.858;4.384;2023-07-20T00:08:16;7.03;;;2.38;;
22634;SDS011;11484;50.858;4.384;2023-07-20T00:10:43;6.97;;;2.30;;
22634;SDS011;11484;50.858;4.384;2023-07-20T00:13:09;7.30;;;2.42;;
22634;SDS011;11484;50.858;4.384;2023-07-20T00:15:36;5.53;;;2.40;;
22634;SDS011;11484;50.858;4.384;2023-07-20T00:18:02;7.00;;;2.63;;
22634;SDS011;11484;50.858;4.384;2023-07-20T00:20:28;6.60;;;2.42;;
22634;SDS011;11484;50.858;4.384;2023-07-20T00:22:54;6.07;;;2.50;;
22634;SDS011;11484;50.858;4.384;2023-07-20T00:25:22;5.97;;;2.65;;
22634;SDS011;11484;50.858;4.384;2023-07-20T00:27:48;4.97;;;2.42;;
22634;SDS011;11484;50.858;4.384;2023-07-20T00:30:14;4.28;;;2.53;;
22634;SDS011;11484;50.858;4.384;2023-07-20T00:32:40;6.60;;;2.30;;
22634;SDS011;11484;50.858;4.384;2023-07-20T00:35:06;5.35;;;2.30;;
22634;SDS011;11484;50.858;4.384;2023-07-20T00:37:32;4.85;;;2.42;;
22634;SDS011;11484;50.858;4.384;2023-07-20T00:39:58;7.45;;;2.50;;
22634;SDS011;11484;50.858;4.384;2023-07-20T00:42:23;5.20;;;2.72;;
22634;SDS011;11484;50.858;4.384;2023-07-20T00:44:49;7.45;;;2.50;;
22634;SDS011;11484;50.858;4.384;2023-07-20T00:47:15;10.05;;;2.95;;
22634;SDS011;11484;50.858;4.384;2023-07-20T00:49:40;7.55;;;2.80;;
22634;SDS011;11484;50.858;4.384;2023-07-20T00:52:06;6.47;;;2.75;;
22634;SDS011;11484;50.858;4.384;2023-07-20T00:54:33;6.38;;;2.47;;
22634;SDS011;11484;50.858;4.384;2023-07-20T00:57:00;6.40;;;2.63;;
22634;SDS011;11484;50.858;4.384;2023-07-20T00:59:27;8.20;;;2.75;;
22634;SDS011;11484;50.858;4.384;2023-07-20T01:01:53;4.97;;;2.67;;
22634;SDS011;11484;50.858;4.384;2023-07-20T01:04:19;8.20;;;2.85;;
22634;SDS011;11484;50.858;4.384;2023-07-20T01:06:47;8.27;;;2.80;;
22634;SDS011;11484;50.858;4.384;2023-07-20T01:09:24;6.15;;;2.70;;
22634;SDS011;11484;50.858;4.384;2023-07-20T01:14:34;6.97;;;3.30;;
22634;SDS011;11484;50.858;4.384;2023-07-20T01:17:00;7.80;;;3.25;;
22634;SDS011;11484;50.858;4.384;2023-07-20T01:19:26;7.53;;;2.75;;
22634;SDS011;11484;50.858;4.384;2023-07-20T01:29:48;7.60;;;3.00;;
22634;SDS011;11484;50.858;4.384;2023-07-20T01:32:29;8.27;;;3.10;;
22634;SDS011;11484;50.858;4.384;2023-07-20T01:34:56;8.52;;;3.22;;
22634;SDS011;11484;50.858;4.384;2023-07-20T01:37:24;7.82;;;4.00;;
22634;SDS011;11484;50.858;4.384;2023-07-20T01:39:54;12.10;;;3.10;;
22634;SDS011;11484;50.858;4.384;2023-07-20T01:42:23;8.35;;;3.53;;
22634;SDS011;11484;50.858;4.384;2023-07-20T01:44:53;7.10;;;3.30;;
22634;SDS011;11484;50.858;4.384;2023-07-20T01:47:18;8.65;;;4.05;;
22634;SDS011;11484;50.858;4.384;2023-07-20T01:49:44;9.45;;;4.50;;
22634;SDS011;11484;50.858;4.384;2023-07-20T01:52:10;8.68;;;3.95;;
22634;SDS011;11484;50.858;4.384;2023-07-20T01:54:36;10.48;;;4.30;;
22634;SDS011;11484;50.858;4.384;2023-07-20T01:57:02;10.13;;;3.72;;
22634;SDS011;11484;50.858;4.384;2023-07-20T01:59:28;7.25;;;3.95;;
22634;SDS011;11484;50.858;4.384;2023-07-20T02:01:53;10.45;;;4.13;;
22634;SDS011;11484;50.858;4.384;2023-07-20T02:04:19;9.68;;;3.92;;
22634;SDS011;11484;50.858;4.384;2023-07-20T02:06:44;10.43;;;4.57;;
22634;SDS011;11484;50.858;4.384;2023-07-20T02:09:10;8.45;;;4.40;;
22634;SDS011;11484;50.858;4.384;2023-07-20T02:11:36;10.15;;;5.10;;
22634;SDS011;11484;50.858;4.384;2023-07-20T02:14:01;9.20;;;4.45;;
22634;SDS011;11484;50.858;4.384;2023-07-20T02:16:27;10.15;;;4.25;;
22634;SDS011;11484;50.858;4.384;2023-07-20T02:18:53;7.30;;;4.30;;
22634;SDS011;11484;50.858;4.384;2023-07-20T02:21:18;10.15;;;5.20;;
22634;SDS011;11484;50.858;4.384;2023-07-20T02:23:44;10.68;;;5.05;;
22634;SDS011;11484;50.858;4.384;2023-07-20T02:26:09;10.63;;;4.82;;
22634;SDS011;11484;50.858;4.384;2023-07-20T02:28:35;10.60;;;4.82;;
22634;SDS011;11484;50.858;4.384;2023-07-20T02:31:01;10.45;;;5.32;;
22634;SDS011;11484;50.858;4.384;2023-07-20T02:33:26;9.70;;;5.03;;
22634;SDS011;11484;50.858;4.384;2023-07-20T02:35:52;13.82;;;5.25;;
22634;SDS011;11484;50.858;4.384;2023-07-20T02:38:18;14.25;;;5.82;;
22634;SDS011;11484;50.858;4.384;2023-07-20T02:40:43;11.20;;;5.10;;
22634;SDS011;11484;50.858;4.384;2023-07-20T02:43:09;11.15;;;5.05;;
22634;SDS011;11484;50.858;4.384;2023-07-20T02:45:35;9.98;;;5.25;;
22634;SDS011;11484;50.858;4.384;2023-07-20T02:48:04;10.88;;;5.50;;
22634;SDS011;11484;50.858;4.384;2023-07-20T02:50:33;13.35;;;5.78;;
22634;SDS011;11484;50.858;4.384;2023-07-20T02:52:59;12.68;;;5.32;;
22634;SDS011;11484;50.858;4.384;2023-07-20T02:55:25;11.40;;;5.72;;
22634;SDS011;11484;50.858;4.384;2023-07-20T02:57:51;11.95;;;5.47;;
22634;SDS011;11484;50.858;4.384;2023-07-20T03:00:16;11.77;;;5.78;;
22634;SDS011;11484;50.858;4.384;2023-07-20T03:02:44;12.35;;;5.97;;
22634;SDS011;11484;50.858;4.384;2023-07-20T03:05:13;9.48;;;5.60;;
22634;SDS011;11484;50.858;4.384;2023-07-20T03:07:39;12.30;;;5.95;;
22634;SDS011;11484;50.858;4.384;2023-07-20T03:10:05;12.05;;;6.15;;
22634;SDS011;11484;50.858;4.384;2023-07-20T03:12:34;11.47;;;6.57;;
22634;SDS011;11484;50.858;4.384;2023-07-20T03:15:01;12.88;;;6.70;;
22634;SDS011;11484;50.858;4.384;2023-07-20T03:17:27;13.80;;;6.90;;
22634;SDS011;11484;50.858;4.384;2023-07-20T03:19:53;12.77;;;7.05;;
22634;SDS011;11484;50.858;4.384;2023-07-20T03:22:19;13.10;;;7.22;;
22634;SDS011;11484;50.858;4.384;2023-07-20T03:24:46;14.52;;;7.32;;
22634;SDS011;11484;50.858;4.384;2023-07-20T03:27:12;13.77;;;6.90;;
22634;SDS011;11484;50.858;4.384;2023-07-20T03:29:38;13.90;;;7.60;;
22634;SDS011;11484;50.858;4.384;2023-07-20T03:32:04;14.75;;;7.97;;
22634;SDS011;11484;50.858;4.384;2023-07-20T03:34:30;14.82;;;7.97;;
22634;SDS011;11484;50.858;4.384;2023-07-20T03:36:56;13.20;;;7.32;;
22634;SDS011;11484;50.858;4.384;2023-07-20T03:39:22;21.05;;;8.88;;
22634;SDS011;11484;50.858;4.384;2023-07-20T03:41:47;15.95;;;8.23;;
22634;SDS011;11484;50.858;4.384;2023-07-20T03:44:13;15.85;;;7.93;;
22634;SDS011;11484;50.858;4.384;2023-07-20T03:46:39;18.25;;;9.30;;
22634;SDS011;11484;50.858;4.384;2023-07-20T03:49:04;15.65;;;7.38;;
22634;SDS011;11484;50.858;4.384;2023-07-20T03:51:31;19.63;;;9.00;;
22634;SDS011;11484;50.858;4.384;2023-07-20T03:53:57;14.38;;;7.97;;
22634;SDS011;11484;50.858;4.384;2023-07-20T03:56:23;16.50;;;8.80;;
22634;SDS011;11484;50.858;4.384;2023-07-20T03:58:49;16.60;;;9.73;;
22634;SDS011;11484;50.858;4.384;2023-07-20T04:01:15;14.75;;;8.70;;
22634;SDS011;11484;50.858;4.384;2023-07-20T04:03:42;17.15;;;8.82;;
22634;SDS011;11484;50.858;4.384;2023-07-20T04:06:08;15.40;;;9.30;;
22634;SDS011;11484;50.858;4.384;2023-07-20T04:08:33;21.75;;;10.05;;
22634;SDS011;11484;50.858;4.384;2023-07-20T04:11:03;16.33;;;8.80;;
22634;SDS011;11484;50.858;4.384;2023-07-20T04:13:29;15.55;;;8.07;;
22634;SDS011;11484;50.858;4.384;2023-07-20T04:15:58;14.25;;;9.18;;
22634;SDS011;11484;50.858;4.384;2023-07-20T04:18:24;13.73;;;8.20;;
22634;SDS011;11484;50.858;4.384;2023-07-20T04:20:49;17.00;;;8.50;;
22634;SDS011;11484;50.858;4.384;2023-07-20T04:23:15;17.23;;;9.30;;
22634;SDS011;11484;50.858;4.384;2023-07-20T04:25:41;17.27;;;9.20;;
22634;SDS011;11484;50.858;4.384;2023-07-20T04:28:07;19.67;;;10.27;;
22634;SDS011;11484;50.858;4.384;2023-07-20T04:30:36;17.63;;;9.48;;
22634;SDS011;11484;50.858;4.384;2023-07-20T04:33:03;18.75;;;10.50;;
22634;SDS011;11484;50.858;4.384;2023-07-20T04:35:45;16.52;;;9.57;;
22634;SDS011;11484;50.858;4.384;2023-07-20T04:38:11;19.08;;;8.88;;
22634;SDS011;11484;50.858;4.384;2023-07-20T04:40:37;16.48;;;9.23;;
22634;SDS011;11484;50.858;4.384;2023-07-20T04:43:02;15.50;;;9.05;;
22634;SDS011;11484;50.858;4.384;2023-07-20T04:45:28;16.55;;;9.82;;
22634;SDS011;11484;50.858;4.384;2023-07-20T04:47:54;14.27;;;8.98;;
22634;SDS011;11484;50.858;4.384;2023-07-20T04:50:20;17.65;;;9.20;;
22634;SDS011;11484;50.858;4.384;2023-07-20T04:52:46;15.88;;;9.32;;
22634;SDS011;11484;50.858;4.384;2023-07-20T04:55:13;17.05;;;9.20;;
22634;SDS011;11484;50.858;4.384;2023-07-20T04:57:38;15.27;;;9.38;;
22634;SDS011;11484;50.858;4.384;2023-07-20T05:00:05;17.33;;;10.07;;
22634;SDS011;11484;50.858;4.384;2023-07-20T05:02:31;16.38;;;10.45;;
22634;SDS011;11484;50.858;4.384;2023-07-20T05:04:57;16.90;;;10.10;;
22634;SDS011;11484;50.858;4.384;2023-07-20T05:07:22;15.45;;;9.98;;
22634;SDS011;11484;50.858;4.384;2023-07-20T05:09:48;19.20;;;9.73;;
22634;SDS011;11484;50.858;4.384;2023-07-20T05:12:13;14.35;;;9.88;;
22634;SDS011;11484;50.858;4.384;2023-07-20T05:14:39;25.75;;;15.65;;
22634;SDS011;11484;50.858;4.384;2023-07-20T05:17:06;19.58;;;10.63;;
22634;SDS011;11484;50.858;4.384;2023-07-20T05:19:32;17.20;;;9.48;;
22634;SDS011;11484;50.858;4.384;2023-07-20T05:21:58;13.82;;;8.85;;
22634;SDS011;11484;50.858;4.384;2023-07-20T05:24:23;20.10;;;9.40;;
22634;SDS011;11484;50.858;4.384;2023-07-20T05:26:49;16.00;;;9.88;;
22634;SDS011;11484;50.858;4.384;2023-07-20T05:29:15;17.10;;;9.27;;
22634;SDS011;11484;50.858;4.384;2023-07-20T05:31:40;15.25;;;9.02;;
22634;SDS011;11484;50.858;4.384;2023-07-20T05:34:06;13.27;;;8.88;;
22634;SDS011;11484;50.858;4.384;2023-07-20T05:36:32;15.73;;;9.18;;
22634;SDS011;11484;50.858;4.384;2023-07-20T05:38:57;15.50;;;9.48;;
22634;SDS011;11484;50.858;4.384;2023-07-20T05:41:23;15.70;;;9.20;;
22634;SDS011;11484;50.858;4.384;2023-07-20T05:43:49;13.23;;;8.85;;
22634;SDS011;11484;50.858;4.384;2023-07-20T05:46:14;11.88;;;8.30;;
22634;SDS011;11484;50.858;4.384;2023-07-20T05:48:40;14.18;;;8.30;;
22634;SDS011;11484;50.858;4.384;2023-07-20T05:51:06;14.52;;;8.07;;
22634;SDS011;11484;50.858;4.384;2023-07-20T05:53:32;12.18;;;8.30;;
22634;SDS011;11484;50.858;4.384;2023-07-20T05:55:57;13.65;;;8.60;;
22634;SDS011;11484;50.858;4.384;2023-07-20T05:58:23;12.48;;;8.65;;
22634;SDS011;11484;50.858;4.384;2023-07-20T06:00:49;15.32;;;8.13;;
22634;SDS011;11484;50.858;4.384;2023-07-20T06:03:15;11.18;;;8.63;;
22634;SDS011;11484;50.858;4.384;2023-07-20T06:05:46;11.27;;;8.05;;
22634;SDS011;11484;50.858;4.384;2023-07-20T06:08:12;12.00;;;7.38;;
22634;SDS011;11484;50.858;4.384;2023-07-20T06:10:37;15.02;;;8.15;;
22634;SDS011;11484;50.858;4.384;2023-07-20T06:13:03;14.00;;;7.32;;
22634;SDS011;11484;50.858;4.384;2023-07-20T06:15:32;12.27;;;7.25;;
22634;SDS011;11484;50.858;4.384;2023-07-20T06:18:01;11.23;;;7.25;;
22634;SDS011;11484;50.858;4.384;2023-07-20T06:20:28;15.30;;;8.00;;
22634;SDS011;11484;50.858;4.384;2023-07-20T06:22:54;12.98;;;7.60;;
22634;SDS011;11484;50.858;4.384;2023-07-20T06:25:20;10.45;;;6.32;;
22634;SDS011;11484;50.858;4.384;2023-07-20T06:27:46;10.30;;;6.10;;
22634;SDS011;11484;50.858;4.384;2023-07-20T06:30:11;9.25;;;6.15;;
22634;SDS011;11484;50.858;4.384;2023-07-20T06:32:38;7.32;;;5.05;;
22634;SDS011;11484;50.858;4.384;2023-07-20T06:35:04;6.93;;;4.40;;
22634;SDS011;11484;50.858;4.384;2023-07-20T06:37:30;7.30;;;4.25;;
22634;SDS011;11484;50.858;4.384;2023-07-20T06:39:56;8.93;;;4.47;;
22634;SDS011;11484;50.858;4.384;2023-07-20T06:42:21;6.40;;;4.30;;
22634;SDS011;11484;50.858;4.384;2023-07-20T06:44:47;7.93;;;4.28;;
22634;SDS011;11484;50.858;4.384;2023-07-20T06:47:12;5.35;;;3.97;;
22634;SDS011;11484;50.858;4.384;2023-07-20T06:49:38;9.98;;;4.90;;
22634;SDS011;11484;50.858;4.384;2023-07-20T06:52:04;7.38;;;4.65;;
22634;SDS011;11484;50.858;4.384;2023-07-20T06:54:30;6.85;;;4.43;;
22634;SDS011;11484;50.858;4.384;2023-07-20T06:56:56;4.88;;;3.55;;
22634;SDS011;11484;50.858;4.384;2023-07-20T06:59:21;7.25;;;3.85;;
22634;SDS011;11484;50.858;4.384;2023-07-20T07:01:47;5.60;;;3.75;;
22634;SDS011;11484;50.858;4.384;2023-07-20T07:04:13;9.50;;;4.05;;
22634;SDS011;11484;50.858;4.384;2023-07-20T07:06:38;8.20;;;3.85;;
22634;SDS011;11484;50.858;4.384;2023-07-20T07:09:04;5.57;;;4.32;;
22634;SDS011;11484;50.858;4.384;2023-07-20T07:11:30;6.93;;;3.97;;
22634;SDS011;11484;50.858;4.384;2023-07-20T07:13:56;5.82;;;2.80;;
22634;SDS011;11484;50.858;4.384;2023-07-20T07:16:21;7.85;;;3.80;;
22634;SDS011;11484;50.858;4.384;2023-07-20T07:18:47;4.50;;;3.15;;
22634;SDS011;11484;50.858;4.384;2023-07-20T07:21:15;7.45;;;3.17;;
22634;SDS011;11484;50.858;4.384;2023-07-20T07:23:41;6.30;;;2.53;;
22634;SDS011;11484;50.858;4.384;2023-07-20T07:26:06;5.50;;;2.97;;
22634;SDS011;11484;50.858;4.384;2023-07-20T07:28:32;3.40;;;1.55;;
22634;SDS011;11484;50.858;4.384;2023-07-20T07:30:58;2.42;;;1.83;;
22634;SDS011;11484;50.858;4.384;2023-07-20T07:33:23;4.85;;;2.10;;
22634;SDS011;11484;50.858;4.384;2023-07-20T07:35:50;5.38;;;1.90;;
22634;SDS011;11484;50.858;4.384;2023-07-20T07:38:19;3.72;;;1.80;;
22634;SDS011;11484;50.858;4.384;2023-07-20T07:40:45;2.45;;;1.70;;
22634;SDS011;11484;50.858;4.384;2023-07-20T07:43:11;2.70;;;1.48;;
22634;SDS011;11484;50.858;4.384;2023-07-20T07:45:38;3.30;;;1.63;;
22634;SDS011;11484;50.858;4.384;2023-07-20T07:48:05;4.57;;;1.75;;
22634;SDS011;11484;50.858;4.384;2023-07-20T07:50:32;3.60;;;1.42;;
22634;SDS011;11484;50.858;4.384;2023-07-20T07:52:58;2.17;;;1.30;;
22634;SDS011;11484;50.858;4.384;2023-07-20T07:55:24;2.05;;;0.85;;
22634;SDS011;11484;50.858;4.384;2023-07-20T07:57:51;1.50;;;0.60;;
22634;SDS011;11484;50.858;4.384;2023-07-20T08:00:17;4.45;;;1.35;;
22634;SDS011;11484;50.858;4.384;2023-07-20T08:02:44;2.22;;;0.80;;
22634;SDS011;11484;50.858;4.384;2023-07-20T08:05:11;2.63;;;1.00;;
22634;SDS011;11484;50.858;4.384;2023-07-20T08:07:37;2.75;;;1.35;;
22634;SDS011;11484;50.858;4.384;2023-07-20T08:10:03;3.92;;;1.20;;
22634;SDS011;11484;50.858;4.384;2023-07-20T08:12:29;8.50;;;2.00;;
22634;SDS011;11484;50.858;4.384;2023-07-20T08:14:55;2.08;;;1.00;;
22634;SDS011;11484;50.858;4.384;2023-07-20T08:17:21;2.33;;;1.10;;
22634;SDS011;11484;50.858;4.384;2023-07-20T08:19:47;2.47;;;0.85;;
22634;SDS011;11484;50.858;4.384;2023-07-20T08:22:13;2.47;;;1.00;;
22634;SDS011;11484;50.858;4.384;2023-07-20T08:24:39;2.33;;;0.90;;
22634;SDS011;11484;50.858;4.384;2023-07-20T08:27:05;1.75;;;0.80;;
22634;SDS011;11484;50.858;4.384;2023-07-20T08:29:31;1.98;;;0.60;;
22634;SDS011;11484;50.858;4.384;2023-07-20T08:31:57;1.98;;;0.70;;
22634;SDS011;11484;50.858;4.384;2023-07-20T08:34:23;1.88;;;0.70;;
22634;SDS011;11484;50.858;4.384;2023-07-20T08:36:49;3.03;;;1.00;;
22634;SDS011;11484;50.858;4.384;2023-07-20T08:39:15;2.33;;;0.80;;
22634;SDS011;11484;50.858;4.384;2023-07-20T08:44:27;2.47;;;0.90;;
22634;SDS011;11484;50.858;4.384;2023-07-20T08:46:55;2.28;;;0.55;;
22634;SDS011;11484;50.858;4.384;2023-07-20T08:49:31;1.63;;;0.70;;
22634;SDS011;11484;50.858;4.384;2023-07-20T08:52:02;1.35;;;0.50;;
22634;SDS011;11484;50.858;4.384;2023-07-20T08:54:33;1.80;;;0.55;;
22634;SDS011;11484;50.858;4.384;2023-07-20T08:57:04;0.82;;;0.50;;
22634;SDS011;11484;50.858;4.384;2023-07-20T08:59:34;2.38;;;0.70;;
22634;SDS011;11484;50.858;4.384;2023-07-20T09:02:08;1.95;;;0.80;;
22634;SDS011;11484;50.858;4.384;2023-07-20T09:04:44;1.48;;;0.60;;
22634;SDS011;11484;50.858;4.384;2023-07-20T09:07:16;2.47;;;0.60;;
22634;SDS011;11484;50.858;4.384;2023-07-20T09:09:46;2.03;;;0.60;;
22634;SDS011;11484;50.858;4.384;2023-07-20T09:12:17;2.65;;;0.90;;
22634;SDS011;11484;50.858;4.384;2023-07-20T09:17:22;2.58;;;1.17;;
22634;SDS011;11484;50.858;4.384;2023-07-20T09:19:52;2.25;;;0.77;;
22634;SDS011;11484;50.858;4.384;2023-07-20T09:22:21;3.35;;;0.75;;
22634;SDS011;11484;50.858;4.384;2023-07-20T09:24:57;1.35;;;0.55;;
22634;SDS011;11484;50.858;4.384;2023-07-20T09:27:37;1.40;;;0.60;;
22634;SDS011;11484;50.858;4.384;2023-07-20T09:30:07;3.80;;;0.80;;
22634;SDS011;11484;50.858;4.384;2023-07-20T09:32:46;2.60;;;0.90;;
22634;SDS011;11484;50.858;4.384;2023-07-20T09:35:19;3.47;;;0.90;;
22634;SDS011;11484;50.858;4.384;2023-07-20T09:38:00;1.55;;;0.80;;
22634;SDS011;11484;50.858;4.384;2023-07-20T09:40:37;2.78;;;0.70;;
22634;SDS011;11484;50.858;4.384;2023-07-20T09:43:07;2.78;;;0.82;;
22634;SDS011;11484;50.858;4.384;2023-07-20T09:45:43;2.17;;;0.73;;
22634;SDS011;11484;50.858;4.384;2023-07-20T09:48:11;5.60;;;4.13;;
22634;SDS011;11484;50.858;4.384;2023-07-20T09:50:41;1.85;;;0.80;;
22634;SDS011;11484;50.858;4.384;2023-07-20T09:53:09;3.50;;;1.15;;
22634;SDS011;11484;50.858;4.384;2023-07-20T09:55:40;4.45;;;1.10;;
22634;SDS011;11484;50.858;4.384;2023-07-20T09:58:08;3.40;;;1.23;;
22634;SDS011;11484;50.858;4.384;2023-07-20T10:00:39;2.28;;;1.00;;
22634;SDS011;11484;50.858;4.384;2023-07-20T10:03:14;1.02;;;0.80;;
22634;SDS011;11484;50.858;4.384;2023-07-20T10:05:51;2.40;;;0.90;;
22634;SDS011;11484;50.858;4.384;2023-07-20T10:08:22;4.88;;;0.95;;
22634;SDS011;11484;50.858;4.384;2023-07-20T10:10:52;1.58;;;0.80;;
22634;SDS011;11484;50.858;4.384;2023-07-20T10:13:25;2.25;;;1.00;;
22634;SDS011;11484;50.858;4.384;2023-07-20T10:16:02;2.35;;;0.90;;
22634;SDS011;11484;50.858;4.384;2023-07-20T10:18:57;2.17;;;0.70;;
22634;SDS011;11484;50.858;4.384;2023-07-20T10:21:37;1.52;;;0.70;;
22634;SDS011;11484;50.858;4.384;2023-07-20T10:24:12;1.25;;;0.80;;
22634;SDS011;11484;50.858;4.384;2023-07-20T10:26:39;2.35;;;0.80;;
22634;SDS011;11484;50.858;4.384;2023-07-20T10:29:05;3.47;;;0.93;;
22634;SDS011;11484;50.858;4.384;2023-07-20T10:31:31;1.83;;;0.70;;
22634;SDS011;11484;50.858;4.384;2023-07-20T10:33:58;1.85;;;0.80;;
22634;SDS011;11484;50.858;4.384;2023-07-20T10:36:25;4.13;;;1.25;;
22634;SDS011;11484;50.858;4.384;2023-07-20T10:38:56;2.08;;;0.90;;
22634;SDS011;11484;50.858;4.384;2023-07-20T10:41:35;1.98;;;1.20;;
22634;SDS011;11484;50.858;4.384;2023-07-20T10:44:06;2.97;;;1.00;;
22634;SDS011;11484;50.858;4.384;2023-07-20T10:46:33;3.13;;;1.15;;
22634;SDS011;11484;50.858;4.384;2023-07-20T10:49:07;1.00;;;0.73;;
22634;SDS011;11484;50.858;4.384;2023-07-20T10:51:41;2.25;;;0.90;;
22634;SDS011;11484;50.858;4.384;2023-07-20T10:54:08;2.38;;;0.90;;
22634;SDS011;11484;50.858;4.384;2023-07-20T10:56:55;2.10;;;0.80;;
22634;SDS011;11484;50.858;4.384;2023-07-20T11:01:56;2.08;;;1.13;;
22634;SDS011;11484;50.858;4.384;2023-07-20T11:04:37;2.38;;;1.00;;
22634;SDS011;11484;50.858;4.384;2023-07-20T11:07:08;1.50;;;1.08;;
22634;SDS011;11484;50.858;4.384;2023-07-20T11:09:35;2.58;;;1.08;;
22634;SDS011;11484;50.858;4.384;2023-07-20T11:12:15;3.17;;;1.02;;
22634;SDS011;11484;50.858;4.384;2023-07-20T11:14:42;2.58;;;1.00;;
22634;SDS011;11484;50.858;4.384;2023-07-20T11:17:18;1.98;;;1.23;;
22634;SDS011;11484;50.858;4.384;2023-07-20T11:19:47;2.55;;;1.30;;
22634;SDS011;11484;50.858;4.384;2023-07-20T11:22:16;2.17;;;1.20;;
22634;SDS011;11484;50.858;4.384;2023-07-20T11:24:42;2.67;;;1.35;;
22634;SDS011;11484;50.858;4.384;2023-07-20T11:27:08;2.10;;;1.10;;
22634;SDS011;11484;50.858;4.384;2023-07-20T11:29:34;2.35;;;1.50;;
22634;SDS011;11484;50.858;4.384;2023-07-20T11:32:02;1.50;;;1.33;;
22634;SDS011;11484;50.858;4.384;2023-07-20T11:34:30;2.63;;;1.60;;
22634;SDS011;11484;50.858;4.384;2023-07-20T11:36:56;5.28;;;2.10;;
22634;SDS011;11484;50.858;4.384;2023-07-20T11:39:22;3.28;;;1.88;;
22634;SDS011;11484;50.858;4.384;2023-07-20T11:41:56;4.38;;;2.03;;
22634;SDS011;11484;50.858;4.384;2023-07-20T11:44:23;1.70;;;1.60;;
22634;SDS011;11484;50.858;4.384;2023-07-20T11:47:05;2.30;;;1.35;;
22634;SDS011;11484;50.858;4.384;2023-07-20T11:49:36;2.50;;;1.40;;
22634;SDS011;11484;50.858;4.384;2023-07-20T11:52:07;2.08;;;1.80;;
22634;SDS011;11484;50.858;4.384;2023-07-20T11:54:34;2.95;;;1.58;;
22634;SDS011;11484;50.858;4.384;2023-07-20T11:57:04;2.20;;;1.80;;
22634;SDS011;11484;50.858;4.384;2023-07-20T11:59:33;2.03;;;1.70;;
22634;SDS011;11484;50.858;4.384;2023-07-20T12:02:02;3.60;;;2.28;;
22634;SDS011;11484;50.858;4.384;2023-07-20T12:04:28;3.13;;;1.80;;
22634;SDS011;11484;50.858;4.384;2023-07-20T12:06:56;3.42;;;2.13;;
22634;SDS011;11484;50.858;4.384;2023-07-20T12:09:22;2.22;;;1.90;;
22634;SDS011;11484;50.858;4.384;2023-07-20T12:11:48;2.30;;;1.98;;
22634;SDS011;11484;50.858;4.384;2023-07-20T12:14:15;2.75;;;2.10;;
22634;SDS011;11484;50.858;4.384;2023-07-20T12:16:41;3.28;;;2.17;;
22634;SDS011;11484;50.858;4.384;2023-07-20T12:19:07;2.83;;;2.13;;
22634;SDS011;11484;50.858;4.384;2023-07-20T12:21:38;2.88;;;2.55;;
22634;SDS011;11484;50.858;4.384;2023-07-20T12:24:06;4.53;;;2.22;;
22634;SDS011;11484;50.858;4.384;2023-07-20T12:26:33;2.45;;;2.00;;
22634;SDS011;11484;50.858;4.384;2023-07-20T12:28:59;3.53;;;2.22;;
22634;SDS011;11484;50.858;4.384;2023-07-20T12:31:25;2.53;;;1.80;;
22634;SDS011;11484;50.858;4.384;2023-07-20T12:33:52;6.03;;;2.33;;
22634;SDS011;11484;50.858;4.384;2023-07-20T12:36:20;2.55;;;2.28;;
22634;SDS011;11484;50.858;4.384;2023-07-20T12:38:46;2.65;;;1.88;;
22634;SDS011;11484;50.858;4.384;2023-07-20T12:41:12;3.28;;;2.40;;
22634;SDS011;11484;50.858;4.384;2023-07-20T12:43:39;4.90;;;2.25;;
22634;SDS011;11484;50.858;4.384;2023-07-20T12:46:10;2.35;;;2.00;;
22634;SDS011;11484;50.858;4.384;2023-07-20T12:48:37;2.97;;;1.95;;
22634;SDS011;11484;50.858;4.384;2023-07-20T12:51:05;2.40;;;1.95;;
22634;SDS011;11484;50.858;4.384;2023-07-20T12:53:31;3.20;;;2.00;;
22634;SDS011;11484;50.858;4.384;2023-07-20T12:55:57;2.63;;;2.20;;
22634;SDS011;11484;50.858;4.384;2023-07-20T12:58:23;2.45;;;2.13;;
22634;SDS011;11484;50.858;4.384;2023-07-20T13:00:49;5.10;;;2.17;;
22634;SDS011;11484;50.858;4.384;2023-07-20T13:03:15;6.25;;;3.47;;
22634;SDS011;11484;50.858;4.384;2023-07-20T13:05:43;3.22;;;2.35;;
22634;SDS011;11484;50.858;4.384;2023-07-20T13:08:09;2.85;;;2.38;;
22634;SDS011;11484;50.858;4.384;2023-07-20T13:10:35;3.15;;;2.30;;
22634;SDS011;11484;50.858;4.384;2023-07-20T13:13:01;4.57;;;2.40;;
22634;SDS011;11484;50.858;4.384;2023-07-20T13:15:30;2.78;;;1.88;;
22634;SDS011;11484;50.858;4.384;2023-07-20T13:17:57;3.15;;;1.88;;
22634;SDS011;11484;50.858;4.384;2023-07-20T13:20:24;3.08;;;1.70;;
22634;SDS011;11484;50.858;4.384;2023-07-20T13:22:50;2.75;;;1.85;;
22634;SDS011;11484;50.858;4.384;2023-07-20T13:25:16;4.05;;;1.80;;
22634;SDS011;11484;50.858;4.384;2023-07-20T13:27:42;9.00;;;2.55;;
22634;SDS011;11484;50.858;4.384;2023-07-20T13:30:08;4.55;;;2.42;;
22634;SDS011;11484;50.858;4.384;2023-07-20T13:32:38;6.32;;;2.58;;
22634;SDS011;11484;50.858;4.384;2023-07-20T13:35:04;5.00;;;2.13;;
22634;SDS011;11484;50.858;4.384;2023-07-20T13:37:30;6.85;;;2.75;;
22634;SDS011;11484;50.858;4.384;2023-07-20T13:39:55;2.40;;;2.20;;
22634;SDS011;11484;50.858;4.384;2023-07-20T13:42:21;2.58;;;2.10;;
22634;SDS011;11484;50.858;4.384;2023-07-20T13:44:49;6.63;;;1.95;;
22634;SDS011;11484;50.858;4.384;2023-07-20T13:47:15;3.30;;;1.98;;
22634;SDS011;11484;50.858;4.384;2023-07-20T13:49:41;2.67;;;2.20;;
22634;SDS011;11484;50.858;4.384;2023-07-20T13:52:08;5.03;;;2.38;;
22634;SDS011;11484;50.858;4.384;2023-07-20T13:54:34;3.58;;;2.30;;
22634;SDS011;11484;50.858;4.384;2023-07-20T13:56:59;4.38;;;2.20;;
22634;SDS011;11484;50.858;4.384;2023-07-20T13:59:25;2.42;;;1.95;;
22634;SDS011;11484;50.858;4.384;2023-07-20T14:01:51;3.85;;;1.77;;
22634;SDS011;11484;50.858;4.384;2023-07-20T14:04:16;4.00;;;2.20;;
22634;SDS011;11484;50.858;4.384;2023-07-20T14:06:42;3.08;;;1.90;;
22634;SDS011;11484;50.858;4.384;2023-07-20T14:09:08;3.90;;;2.13;;
22634;SDS011;11484;50.858;4.384;2023-07-20T14:11:33;4.70;;;2.20;;
22634;SDS011;11484;50.858;4.384;2023-07-20T14:13:59;2.63;;;1.95;;
22634;SDS011;11484;50.858;4.384;2023-07-20T14:16:25;2.53;;;1.95;;
22634;SDS011;11484;50.858;4.384;2023-07-20T14:18:51;4.13;;;1.83;;
22634;SDS011;11484;50.858;4.384;2023-07-20T14:21:19;3.00;;;1.90;;
22634;SDS011;11484;50.858;4.384;2023-07-20T14:23:46;6.40;;;1.90;;
22634;SDS011;11484;50.858;4.384;2023-07-20T14:26:13;3.30;;;1.70;;
22634;SDS011;11484;50.858;4.384;2023-07-20T14:28:39;4.82;;;2.15;;
22634;SDS011;11484;50.858;4.384;2023-07-20T14:31:05;5.72;;;2.63;;
22634;SDS011;11484;50.858;4.384;2023-07-20T14:33:31;3.53;;;2.10;;
22634;SDS011;11484;50.858;4.384;2023-07-20T14:35:57;4.47;;;2.05;;
22634;SDS011;11484;50.858;4.384;2023-07-20T14:38:23;2.17;;;1.63;;
22634;SDS011;11484;50.858;4.384;2023-07-20T14:40:48;2.17;;;1.73;;
22634;SDS011;11484;50.858;4.384;2023-07-20T14:43:15;2.72;;;1.70;;
22634;SDS011;11484;50.858;4.384;2023-07-20T14:45:41;3.53;;;1.52;;
22634;SDS011;11484;50.858;4.384;2023-07-20T14:48:07;2.33;;;1.67;;
22634;SDS011;11484;50.858;4.384;2023-07-20T14:50:33;3.30;;;2.60;;
22634;SDS011;11484;50.858;4.384;2023-07-20T14:52:59;2.65;;;1.60;;
22634;SDS011;11484;50.858;4.384;2023-07-20T14:55:25;3.45;;;1.80;;
22634;SDS011;11484;50.858;4.384;2023-07-20T14:57:50;2.65;;;1.38;;
22634;SDS011;11484;50.858;4.384;2023-07-20T15:00:16;1.83;;;1.50;;
22634;SDS011;11484;50.858;4.384;2023-07-20T15:02:42;1.63;;;1.50;;